首页
METAR-TAF:

METAR-TAF

机场 :

热那亚-克里斯托弗·哥伦布机场

热那亚, 意大利

纬度: 44-25N, 经度: 008-51E, 海拔: 2米

当前天气观测

该预报发布于39分钟前的01:50 UTC
风速20节,风向,有时为32节阵风
温度 10°C
湿度 71%
气压 1002 hPa
能见度10公里或以上
少量云层高于1400英尺
散云层高于2800英尺
多云层高于4500英尺
小雨, 毛毛雨

METAR: LIMJ 170150Z 36020G32KT 9999 -RADZ FEW014 SCT028 BKN045 10/05 Q1002

时间: 03:29 (02:29 UTC)

预报

该预报发布于3小时和29分钟前的23:00 UTC
预报有效从17日的 00点(UTC)到 17日的 24点(UTC)
风速15节,风向东北
能见度10公里或以上
散云层高于2000英尺
多云层高于5000英尺
短暂存在
从 17日的 00点(UTC)到 17日的 09点(UTC)
短暂存在
从 17日的 16点(UTC)到 17日的 22点(UTC)
能見度: 4000
雷暴, 雨

TAF: LIMJ 162300Z 1700/1724 04015KT 9999 SCT020 BKN050 TEMPO 1700/1709 RA TEMPO 1716/1722 4000 TSRA

超过4000个机场的气象观测和天气预报(METAR&TAF报告)。

可查询的气象台以黄色和红色小点在地图上表示。

将鼠标移到小点上方,可查看气象台名称。

然后点击查看天气观测和预报。

如需切换地图:点击带黑十字的绿色按钮放大地图;点击带横线的绿色按钮缩小地图;或者点击绿色箭头查看邻近地区的地图。


METAR-TAF: